Flight Track Log - Related Links

Times and Time Zones

All times are in EDT time to prevent confusion due to time zone crossing. See the EJA831 flight status page for this flight to view local times or setup timezone preferences in your user account.

Time Position Orientation Groundspeed Altitude Reporting Facility
EDT Latitude Longitude Course Direction KTS km/h feet Rate Location/Type
Fri 11:09:58 38.9000 -77.4500 237° Southwest 215 398 2.300  Level Potomac TRACON
Fri 11:10:58 38.8667 -77.5167 237° Southwest 269 499 4.900 1.600 Climbing Potomac TRACON
Fri 11:11:58 38.9167 -77.5500 333° Northwest 268 496 5.500 1.041 Climbing Potomac TRACON
Fri 11:12:59 39.0000 -77.5500 360° North 287 531 7.000 1.587 Climbing Potomac TRACON
Fri 11:13:59 39.0667 -77.5333 11° North 276 512 8.700 992 Climbing Potomac TRACON
Fri 11:15:00 39.1500 -77.5167 North 279 517 9.000 149 Climbing Potomac TRACON
Fri 11:16:00 39.1833 -77.4333 63° Northeast 267 494 9.000 324 Level Potomac TRACON
Fri 11:18:24 39.2586 -77.2400 63° Northeast 282 523 10.100 995 Climbing Washington Center
Fri 11:19:25 39.2975 -77.1364 64° Northeast 287 531 12.400 2.182 Climbing Washington Center
Fri 11:20:25 39.3342 -77.0325 65° Northeast 299 554 14.500 1.300 Climbing Washington Center
Fri 11:21:25 39.3231 -76.9089 97° East 318 589 15.000 1.119 Climbing Washington Center
Fri 11:22:23 39.3075 -76.7878 99° East 327 605 16.700 1.815 Climbing Washington Center
Fri 11:23:24 39.2900 -76.6669 101° East 333 616 18.600 2.083 Climbing Washington Center
Fri 11:24:24 39.2722 -76.5406 100° East 344 637 20.900 1.850 Climbing Washington Center
Fri 11:25:24 39.2567 -76.4092 99° East 357 661 22.300 1.041 Climbing Washington Center
Fri 11:26:25 39.2386 -76.2669 99° East 372 689 23.000 344 Climbing Washington Center
Fri 11:27:26 39.2247 -76.1219 97° East 392 726 23.000  Level Washington Center
Fri 11:28:23 39.2400 -75.9883 82° East 397 735 23.000  Level Washington Center
Fri 11:29:23 39.3047 -75.8814 52° Northeast 361 668 23.000  Level Washington Center
Fri 11:30:24 39.3656 -75.7742 54° Northeast 361 668 23.000  Level Washington Center
Fri 11:31:25 39.4322 -75.6614 53° Northeast 373 690 23.000  Level Washington Center
Fri 11:32:25 39.4928 -75.5539 54° Northeast 373 690 23.000  Level Washington Center
Fri 11:33:23 39.5592 -75.4408 53° Northeast 383 710 23.000  Level Washington Center
Fri 11:35:33 39.7006 -75.2147 51° Northeast 378 700 23.000  Level New York Center
Fri 11:36:33 39.7711 -75.1111 48° Northeast 371 687 23.000  Level New York Center
Fri 11:37:34 39.8392 -75.0153 47° Northeast 371 687 23.000  Level New York Center
Fri 11:38:33 39.9094 -74.9114 49° Northeast 371 687 23.000  Level New York Center
Fri 11:39:34 39.9878 -74.8186 42° Northeast 371 687 23.000  Level New York Center
Fri 11:41:35 40.1261 -74.6147 48° Northeast 371 687 23.000  Level New York Center
Fri 11:42:35 40.1958 -74.5128 48° Northeast 371 687 23.000  Level New York Center
Fri 11:43:33 40.2583 -74.3856 57° Northeast 376 697 23.000  Level New York Center
Fri 11:44:34 40.3161 -74.2689 57° Northeast 376 697 23.000  Level New York Center
Fri 11:45:34 40.3736 -74.1544 57° Northeast 376 697 23.000  Level New York Center
Fri 11:46:34 40.4308 -74.0403 57° Northeast 376 697 23.000  Level New York Center
Fri 11:48:20 40.5286 -73.8489 56° Northeast 380 703 23.000  Level Boston Center
Fri 11:49:20 40.5842 -73.7325 58° Northeast 373 690 23.000  Level Boston Center
Fri 11:50:20 40.6331 -73.6269 59° Northeast 373 690 23.000 -250 Level Boston Center
Fri 11:51:20 40.6947 -73.5047 56° Northeast 373 690 22.500 -1.150 Descending Boston Center
Fri 11:52:20 40.7458 -73.3906 59° Northeast 373 690 20.700 -1.750 Descending Boston Center
Fri 11:53:20 40.8050 -73.2928 51° Northeast 345 639 19.000 -850 Descending Boston Center
Fri 11:54:20 40.8744 -73.2142 41° Northeast 328 607 19.000 -450 Level Boston Center
Fri 11:55:20 40.9436 -73.1325 42° Northeast 328 607 18.100 -1.450 Descending Boston Center
Fri 11:56:20 41.0150 -73.0508 41° Northeast 328 607 16.100 -1.800 Descending Boston Center
Fri 11:57:20 41.1006 -73.0294 11° North 314 581 14.500 -1.700 Descending Boston Center
Fri 11:58:20 41.1814 -73.0964 328° Northwest 294 544 12.700 -1.750 Descending Boston Center
Fri 11:59:20 41.2581 -73.1608 328° Northwest 309 573 11.000 -850 Descending Boston Center
Fri 12:00:20 41.3369 -73.2281 327° Northwest 321 594 11.000  Level Boston Center
Fri 12:01:20 41.4156 -73.2925 328° Northwest 332 615 11.000  Level Boston Center
Fri 12:02:20 41.4983 -73.3686 325° Northwest 332 615 11.000 -1.114 Level Boston Center
Fri 12:04:50 41.6667 -73.5167 327° Northwest 256 475 7.100 -1.751 Descending New York TRACON
Fri 12:05:49 41.7333 -73.5833 323° Northwest 270 501 4.900 -1.500 Descending New York TRACON
Fri 12:06:50 41.7167 -73.6667 255° West 230 426 4.100 -650 Descending New York TRACON
Fri 12:07:49 41.6833 -73.7333 236° Southwest 187 346 3.600 -1.160 Descending New York TRACON
Fri 12:08:49 41.6500 -73.7833 228° Southwest 208 385 1.800 -900 Descending New York TRACON
Fri 12:09:49 41.6167 -73.8333 228° Southwest 181 335 1.800 -50 Level New York TRACON
Fri 12:10:49 41.5833 -73.8667 217° Southwest 168 311 1.700 -198 Descending New York TRACON
Fri 12:11:50 41.6000 -73.9167 294° West 137 254 1.400 -295 Descending New York TRACON
Fri 12:13:00 41.6167 -73.8833 56° Northeast  Level FlightAware Approximate
Fri 12:20:00 41.6266 -73.8842 56° Northeast  Level Estimated
Fri 12:21:00 41.6266 -73.8842 56° Northeast  Level Estimated

Login

Don't have an account? Register now (free) for customized features, flight alerts, and more!